sensor_id;sensor_type;location;lat;lon;timestamp;temperature;humidity
7030;DHT22;3556;53.500;10.176;2023-05-14T00:01:52;13.20;90.10
7030;DHT22;3556;53.500;10.176;2023-05-14T00:04:17;13.20;88.60
7030;DHT22;3556;53.500;10.176;2023-05-14T00:06:46;13.20;89.20
7030;DHT22;3556;53.500;10.176;2023-05-14T00:09:12;13.10;91.50
7030;DHT22;3556;53.500;10.176;2023-05-14T00:11:38;13.10;92.20
7030;DHT22;3556;53.500;10.176;2023-05-14T00:14:03;13.00;92.20
7030;DHT22;3556;53.500;10.176;2023-05-14T00:16:29;13.00;92.70
7030;DHT22;3556;53.500;10.176;2023-05-14T00:18:55;13.00;92.80
7030;DHT22;3556;53.500;10.176;2023-05-14T00:21:20;12.90;93.20
7030;DHT22;3556;53.500;10.176;2023-05-14T00:23:46;12.90;94.40
7030;DHT22;3556;53.500;10.176;2023-05-14T00:26:11;12.80;95.20
7030;DHT22;3556;53.500;10.176;2023-05-14T00:28:37;12.80;96.20
7030;DHT22;3556;53.500;10.176;2023-05-14T00:31:03;12.70;96.30
7030;DHT22;3556;53.500;10.176;2023-05-14T00:33:29;12.70;96.90
7030;DHT22;3556;53.500;10.176;2023-05-14T00:35:54;12.60;96.90
7030;DHT22;3556;53.500;10.176;2023-05-14T00:38:20;12.50;96.10
7030;DHT22;3556;53.500;10.176;2023-05-14T00:40:45;12.50;95.90
7030;DHT22;3556;53.500;10.176;2023-05-14T00:43:17;12.50;96.90
7030;DHT22;3556;53.500;10.176;2023-05-14T00:45:43;12.40;95.40
7030;DHT22;3556;53.500;10.176;2023-05-14T00:48:09;12.40;95.70
7030;DHT22;3556;53.500;10.176;2023-05-14T00:50:35;12.40;96.60
7030;DHT22;3556;53.500;10.176;2023-05-14T00:53:01;12.30;97.00
7030;DHT22;3556;53.500;10.176;2023-05-14T00:55:29;12.30;97.00
7030;DHT22;3556;53.500;10.176;2023-05-14T00:57:55;12.30;98.20
7030;DHT22;3556;53.500;10.176;2023-05-14T01:00:21;12.30;98.50
7030;DHT22;3556;53.500;10.176;2023-05-14T01:02:47;12.30;99.50
7030;DHT22;3556;53.500;10.176;2023-05-14T01:05:12;12.30;99.20
7030;DHT22;3556;53.500;10.176;2023-05-14T01:07:57;12.30;98.50
7030;DHT22;3556;53.500;10.176;2023-05-14T01:10:38;12.20;96.50
7030;DHT22;3556;53.500;10.176;2023-05-14T01:13:17;12.20;98.60
7030;DHT22;3556;53.500;10.176;2023-05-14T01:15:46;12.10;98.20
7030;DHT22;3556;53.500;10.176;2023-05-14T01:18:13;12.20;99.30
7030;DHT22;3556;53.500;10.176;2023-05-14T01:20:41;12.10;99.90
7030;DHT22;3556;53.500;10.176;2023-05-14T01:23:07;12.10;99.50
7030;DHT22;3556;53.500;10.176;2023-05-14T01:25:32;12.00;99.80
7030;DHT22;3556;53.500;10.176;2023-05-14T01:28:17;12.00;99.90
7030;DHT22;3556;53.500;10.176;2023-05-14T01:30:52;12.00;99.90
7030;DHT22;3556;53.500;10.176;2023-05-14T01:33:18;12.00;99.90
7030;DHT22;3556;53.500;10.176;2023-05-14T01:35:46;11.90;99.90
7030;DHT22;3556;53.500;10.176;2023-05-14T01:38:14;11.90;99.90
7030;DHT22;3556;53.500;10.176;2023-05-14T01:40:43;11.80;99.90
7030;DHT22;3556;53.500;10.176;2023-05-14T01:43:09;11.80;99.90
7030;DHT22;3556;53.500;10.176;2023-05-14T01:45:36;11.70;99.90
7030;DHT22;3556;53.500;10.176;2023-05-14T01:48:03;11.70;99.90
7030;DHT22;3556;53.500;10.176;2023-05-14T01:50:29;11.60;99.90
7030;DHT22;3556;53.500;10.176;2023-05-14T01:52:54;11.60;99.90
7030;DHT22;3556;53.500;10.176;2023-05-14T01:55:21;11.50;99.90
7030;DHT22;3556;53.500;10.176;2023-05-14T01:57:51;11.40;99.90
7030;DHT22;3556;53.500;10.176;2023-05-14T02:00:18;11.40;99.90
7030;DHT22;3556;53.500;10.176;2023-05-14T02:02:43;11.30;99.90
7030;DHT22;3556;53.500;10.176;2023-05-14T02:05:12;11.30;99.90
7030;DHT22;3556;53.500;10.176;2023-05-14T02:07:38;11.20;99.90
7030;DHT22;3556;53.500;10.176;2023-05-14T02:10:04;11.20;99.90
7030;DHT22;3556;53.500;10.176;2023-05-14T02:12:30;11.10;99.90
7030;DHT22;3556;53.500;10.176;2023-05-14T02:14:55;11.10;99.90
7030;DHT22;3556;53.500;10.176;2023-05-14T02:17:22;11.00;99.90
7030;DHT22;3556;53.500;10.176;2023-05-14T02:19:48;11.00;99.90
7030;DHT22;3556;53.500;10.176;2023-05-14T02:22:14;10.90;99.90
7030;DHT22;3556;53.500;10.176;2023-05-14T02:24:39;10.80;99.90
7030;DHT22;3556;53.500;10.176;2023-05-14T02:27:05;10.80;99.90
7030;DHT22;3556;53.500;10.176;2023-05-14T02:29:31;10.70;99.90
7030;DHT22;3556;53.500;10.176;2023-05-14T02:31:56;10.70;99.90
7030;DHT22;3556;53.500;10.176;2023-05-14T02:34:22;10.60;99.90
7030;DHT22;3556;53.500;10.176;2023-05-14T02:36:48;10.60;99.90
7030;DHT22;3556;53.500;10.176;2023-05-14T02:39:13;10.50;99.90
7030;DHT22;3556;53.500;10.176;2023-05-14T02:41:39;10.50;99.90
7030;DHT22;3556;53.500;10.176;2023-05-14T02:44:04;10.40;99.90
7030;DHT22;3556;53.500;10.176;2023-05-14T02:46:31;10.40;99.90
7030;DHT22;3556;53.500;10.176;2023-05-14T02:48:57;10.30;99.90
7030;DHT22;3556;53.500;10.176;2023-05-14T02:51:23;10.30;99.90
7030;DHT22;3556;53.500;10.176;2023-05-14T02:53:48;10.30;99.90
7030;DHT22;3556;53.500;10.176;2023-05-14T02:56:14;10.20;99.90
7030;DHT22;3556;53.500;10.176;2023-05-14T02:58:40;10.20;99.90
7030;DHT22;3556;53.500;10.176;2023-05-14T03:01:05;10.20;99.90
7030;DHT22;3556;53.500;10.176;2023-05-14T03:03:31;10.10;99.90
7030;DHT22;3556;53.500;10.176;2023-05-14T03:05:57;10.10;99.90
7030;DHT22;3556;53.500;10.176;2023-05-14T03:08:22;10.10;99.90
7030;DHT22;3556;53.500;10.176;2023-05-14T03:10:48;10.10;99.90
7030;DHT22;3556;53.500;10.176;2023-05-14T03:13:14;10.10;99.90
7030;DHT22;3556;53.500;10.176;2023-05-14T03:15:42;10.00;99.90
7030;DHT22;3556;53.500;10.176;2023-05-14T03:18:08;10.00;99.90
7030;DHT22;3556;53.500;10.176;2023-05-14T03:20:34;10.00;99.90
7030;DHT22;3556;53.500;10.176;2023-05-14T03:23:00;10.00;99.90
7030;DHT22;3556;53.500;10.176;2023-05-14T03:25:25;10.00;99.90
7030;DHT22;3556;53.500;10.176;2023-05-14T03:27:51;9.90;99.90
7030;DHT22;3556;53.500;10.176;2023-05-14T03:30:17;9.90;99.90
7030;DHT22;3556;53.500;10.176;2023-05-14T03:32:43;9.90;99.90
7030;DHT22;3556;53.500;10.176;2023-05-14T03:35:08;9.90;99.90
7030;DHT22;3556;53.500;10.176;2023-05-14T03:37:34;9.90;99.90
7030;DHT22;3556;53.500;10.176;2023-05-14T03:40:00;9.90;99.90
7030;DHT22;3556;53.500;10.176;2023-05-14T03:42:25;9.90;99.90
7030;DHT22;3556;53.500;10.176;2023-05-14T03:44:52;10.00;99.90
7030;DHT22;3556;53.500;10.176;2023-05-14T03:47:17;10.00;99.90
7030;DHT22;3556;53.500;10.176;2023-05-14T03:49:43;9.90;99.90
7030;DHT22;3556;53.500;10.176;2023-05-14T03:52:09;9.90;99.90
7030;DHT22;3556;53.500;10.176;2023-05-14T03:54:34;9.90;99.90
7030;DHT22;3556;53.500;10.176;2023-05-14T03:57:00;9.80;99.90
7030;DHT22;3556;53.500;10.176;2023-05-14T03:59:26;9.80;99.90
7030;DHT22;3556;53.500;10.176;2023-05-14T04:01:52;9.80;99.90
7030;DHT22;3556;53.500;10.176;2023-05-14T04:04:17;9.80;99.90
7030;DHT22;3556;53.500;10.176;2023-05-14T04:06:43;9.70;99.90
7030;DHT22;3556;53.500;10.176;2023-05-14T04:09:09;9.70;99.90
7030;DHT22;3556;53.500;10.176;2023-05-14T04:11:35;9.70;99.90
7030;DHT22;3556;53.500;10.176;2023-05-14T04:14:01;9.70;99.90
7030;DHT22;3556;53.500;10.176;2023-05-14T04:16:27;9.70;99.90
7030;DHT22;3556;53.500;10.176;2023-05-14T04:18:52;9.70;99.90
7030;DHT22;3556;53.500;10.176;2023-05-14T04:21:18;9.70;99.90
7030;DHT22;3556;53.500;10.176;2023-05-14T04:23:43;9.70;99.90
7030;DHT22;3556;53.500;10.176;2023-05-14T04:26:09;9.70;99.90
7030;DHT22;3556;53.500;10.176;2023-05-14T04:28:35;9.70;99.90
7030;DHT22;3556;53.500;10.176;2023-05-14T04:31:00;9.70;99.90
7030;DHT22;3556;53.500;10.176;2023-05-14T04:33:26;9.70;99.90
7030;DHT22;3556;53.500;10.176;2023-05-14T04:35:52;9.80;99.90
7030;DHT22;3556;53.500;10.176;2023-05-14T04:38:17;9.80;99.90
7030;DHT22;3556;53.500;10.176;2023-05-14T04:40:43;9.80;99.90
7030;DHT22;3556;53.500;10.176;2023-05-14T04:43:09;9.90;99.90
7030;DHT22;3556;53.500;10.176;2023-05-14T04:45:35;9.90;99.90
7030;DHT22;3556;53.500;10.176;2023-05-14T04:48:04;9.90;99.90
7030;DHT22;3556;53.500;10.176;2023-05-14T04:50:32;10.00;99.90
7030;DHT22;3556;53.500;10.176;2023-05-14T04:52:57;10.00;99.90
7030;DHT22;3556;53.500;10.176;2023-05-14T04:55:23;10.10;99.90
7030;DHT22;3556;53.500;10.176;2023-05-14T04:57:49;10.20;99.90
7030;DHT22;3556;53.500;10.176;2023-05-14T05:00:15;10.20;99.90
7030;DHT22;3556;53.500;10.176;2023-05-14T05:02:41;10.30;99.90
7030;DHT22;3556;53.500;10.176;2023-05-14T05:05:07;10.40;99.90
7030;DHT22;3556;53.500;10.176;2023-05-14T05:07:33;10.60;99.90
7030;DHT22;3556;53.500;10.176;2023-05-14T05:09:59;10.70;99.90
7030;DHT22;3556;53.500;10.176;2023-05-14T05:12:25;10.80;99.90
7030;DHT22;3556;53.500;10.176;2023-05-14T05:14:56;10.90;99.90
7030;DHT22;3556;53.500;10.176;2023-05-14T05:17:23;11.10;99.90
7030;DHT22;3556;53.500;10.176;2023-05-14T05:19:49;11.20;99.90
7030;DHT22;3556;53.500;10.176;2023-05-14T05:22:15;11.40;99.90
7030;DHT22;3556;53.500;10.176;2023-05-14T05:24:40;11.50;99.90
7030;DHT22;3556;53.500;10.176;2023-05-14T05:27:06;11.60;99.90
7030;DHT22;3556;53.500;10.176;2023-05-14T05:29:33;11.80;99.90
7030;DHT22;3556;53.500;10.176;2023-05-14T05:31:58;12.00;99.90
7030;DHT22;3556;53.500;10.176;2023-05-14T05:34:24;12.20;99.90
7030;DHT22;3556;53.500;10.176;2023-05-14T05:36:50;12.30;99.90
7030;DHT22;3556;53.500;10.176;2023-05-14T05:39:16;12.50;99.90
7030;DHT22;3556;53.500;10.176;2023-05-14T05:41:41;12.60;99.90
7030;DHT22;3556;53.500;10.176;2023-05-14T05:44:07;12.80;99.90
7030;DHT22;3556;53.500;10.176;2023-05-14T05:46:33;12.90;99.90
7030;DHT22;3556;53.500;10.176;2023-05-14T05:48:59;13.10;99.90
7030;DHT22;3556;53.500;10.176;2023-05-14T05:51:25;13.30;99.90
7030;DHT22;3556;53.500;10.176;2023-05-14T05:53:50;13.50;99.90
7030;DHT22;3556;53.500;10.176;2023-05-14T05:56:16;13.70;99.90
7030;DHT22;3556;53.500;10.176;2023-05-14T05:58:41;13.90;99.90
7030;DHT22;3556;53.500;10.176;2023-05-14T06:01:07;14.00;99.90
7030;DHT22;3556;53.500;10.176;2023-05-14T06:03:32;14.20;99.90
7030;DHT22;3556;53.500;10.176;2023-05-14T06:05:58;14.30;99.90
7030;DHT22;3556;53.500;10.176;2023-05-14T06:08:24;14.50;99.90
7030;DHT22;3556;53.500;10.176;2023-05-14T06:10:49;14.70;99.90
7030;DHT22;3556;53.500;10.176;2023-05-14T06:13:15;14.90;99.90
7030;DHT22;3556;53.500;10.176;2023-05-14T06:15:41;15.00;99.90
7030;DHT22;3556;53.500;10.176;2023-05-14T06:18:06;15.20;99.90
7030;DHT22;3556;53.500;10.176;2023-05-14T06:20:32;15.30;99.90
7030;DHT22;3556;53.500;10.176;2023-05-14T06:22:58;15.40;99.90
7030;DHT22;3556;53.500;10.176;2023-05-14T06:25:24;15.60;99.90
7030;DHT22;3556;53.500;10.176;2023-05-14T06:27:49;15.70;99.90
7030;DHT22;3556;53.500;10.176;2023-05-14T06:30:15;15.80;99.90
7030;DHT22;3556;53.500;10.176;2023-05-14T06:32:40;16.00;99.90
7030;DHT22;3556;53.500;10.176;2023-05-14T06:35:06;16.20;99.90
7030;DHT22;3556;53.500;10.176;2023-05-14T06:37:32;16.40;99.90
7030;DHT22;3556;53.500;10.176;2023-05-14T06:39:58;16.50;99.90
7030;DHT22;3556;53.500;10.176;2023-05-14T06:42:23;16.70;99.90
7030;DHT22;3556;53.500;10.176;2023-05-14T06:44:50;16.90;99.90
7030;DHT22;3556;53.500;10.176;2023-05-14T06:47:16;17.00;99.90
7030;DHT22;3556;53.500;10.176;2023-05-14T06:49:41;17.10;99.90
7030;DHT22;3556;53.500;10.176;2023-05-14T06:52:07;17.20;99.90
7030;DHT22;3556;53.500;10.176;2023-05-14T06:54:33;17.30;99.90
7030;DHT22;3556;53.500;10.176;2023-05-14T06:56:58;17.50;99.90
7030;DHT22;3556;53.500;10.176;2023-05-14T06:59:24;17.60;99.90
7030;DHT22;3556;53.500;10.176;2023-05-14T07:01:49;17.80;99.90
7030;DHT22;3556;53.500;10.176;2023-05-14T07:04:15;17.90;99.90
7030;DHT22;3556;53.500;10.176;2023-05-14T07:06:41;18.00;99.90
7030;DHT22;3556;53.500;10.176;2023-05-14T07:09:06;18.00;99.90
7030;DHT22;3556;53.500;10.176;2023-05-14T07:11:32;18.20;99.90
7030;DHT22;3556;53.500;10.176;2023-05-14T07:13:58;18.30;99.90
7030;DHT22;3556;53.500;10.176;2023-05-14T07:16:24;18.40;99.90
7030;DHT22;3556;53.500;10.176;2023-05-14T07:18:50;18.50;99.80
7030;DHT22;3556;53.500;10.176;2023-05-14T07:21:16;18.60;99.10
7030;DHT22;3556;53.500;10.176;2023-05-14T07:23:42;18.70;99.40
7030;DHT22;3556;53.500;10.176;2023-05-14T07:26:07;18.80;99.30
7030;DHT22;3556;53.500;10.176;2023-05-14T07:28:33;19.00;98.50
7030;DHT22;3556;53.500;10.176;2023-05-14T07:30:59;19.10;97.70
7030;DHT22;3556;53.500;10.176;2023-05-14T07:33:25;19.10;97.90
7030;DHT22;3556;53.500;10.176;2023-05-14T07:35:51;19.20;97.20
7030;DHT22;3556;53.500;10.176;2023-05-14T07:38:17;19.30;97.50
7030;DHT22;3556;53.500;10.176;2023-05-14T07:40:43;19.40;98.00
7030;DHT22;3556;53.500;10.176;2023-05-14T07:43:09;19.50;97.50
7030;DHT22;3556;53.500;10.176;2023-05-14T07:45:38;19.70;97.40
7030;DHT22;3556;53.500;10.176;2023-05-14T07:48:04;19.80;96.40
7030;DHT22;3556;53.500;10.176;2023-05-14T07:50:29;19.90;95.70
7030;DHT22;3556;53.500;10.176;2023-05-14T07:52:55;20.00;95.80
7030;DHT22;3556;53.500;10.176;2023-05-14T07:55:21;20.20;95.40
7030;DHT22;3556;53.500;10.176;2023-05-14T07:57:47;20.20;95.30
7030;DHT22;3556;53.500;10.176;2023-05-14T08:00:13;20.30;94.70
7030;DHT22;3556;53.500;10.176;2023-05-14T08:02:38;20.40;94.50
7030;DHT22;3556;53.500;10.176;2023-05-14T08:05:04;20.40;94.20
7030;DHT22;3556;53.500;10.176;2023-05-14T08:07:31;20.50;94.80
7030;DHT22;3556;53.500;10.176;2023-05-14T08:09:58;20.50;93.60
7030;DHT22;3556;53.500;10.176;2023-05-14T08:12:23;20.60;93.50
7030;DHT22;3556;53.500;10.176;2023-05-14T08:14:49;20.80;93.90
7030;DHT22;3556;53.500;10.176;2023-05-14T08:17:16;21.00;92.70
7030;DHT22;3556;53.500;10.176;2023-05-14T08:19:42;21.10;93.40
7030;DHT22;3556;53.500;10.176;2023-05-14T08:22:07;21.20;92.60
7030;DHT22;3556;53.500;10.176;2023-05-14T08:24:33;21.40;92.60
7030;DHT22;3556;53.500;10.176;2023-05-14T08:26:59;21.60;92.70
7030;DHT22;3556;53.500;10.176;2023-05-14T08:29:24;21.80;90.60
7030;DHT22;3556;53.500;10.176;2023-05-14T08:31:50;21.90;90.50
7030;DHT22;3556;53.500;10.176;2023-05-14T08:34:16;22.00;90.10
7030;DHT22;3556;53.500;10.176;2023-05-14T08:36:41;22.10;87.10
7030;DHT22;3556;53.500;10.176;2023-05-14T08:39:07;22.10;81.00
7030;DHT22;3556;53.500;10.176;2023-05-14T08:41:33;22.10;78.90
7030;DHT22;3556;53.500;10.176;2023-05-14T08:44:09;22.10;75.90
7030;DHT22;3556;53.500;10.176;2023-05-14T08:46:38;22.20;78.40
7030;DHT22;3556;53.500;10.176;2023-05-14T08:49:27;22.30;73.80
7030;DHT22;3556;53.500;10.176;2023-05-14T08:51:55;22.30;73.90
7030;DHT22;3556;53.500;10.176;2023-05-14T08:54:20;22.40;72.70
7030;DHT22;3556;53.500;10.176;2023-05-14T08:56:50;22.40;70.80
7030;DHT22;3556;53.500;10.176;2023-05-14T08:59:16;22.50;70.70
7030;DHT22;3556;53.500;10.176;2023-05-14T09:01:45;22.50;68.80
7030;DHT22;3556;53.500;10.176;2023-05-14T09:04:13;22.60;71.40
7030;DHT22;3556;53.500;10.176;2023-05-14T09:06:41;22.70;71.40
7030;DHT22;3556;53.500;10.176;2023-05-14T09:09:08;22.80;68.50
7030;DHT22;3556;53.500;10.176;2023-05-14T09:11:49;22.80;71.40
7030;DHT22;3556;53.500;10.176;2023-05-14T09:14:15;22.90;67.90
7030;DHT22;3556;53.500;10.176;2023-05-14T09:16:44;23.00;68.50
7030;DHT22;3556;53.500;10.176;2023-05-14T09:19:11;23.00;66.40
7030;DHT22;3556;53.500;10.176;2023-05-14T09:21:37;23.00;65.90
7030;DHT22;3556;53.500;10.176;2023-05-14T09:24:03;23.10;68.20
7030;DHT22;3556;53.500;10.176;2023-05-14T09:26:31;23.20;63.50
7030;DHT22;3556;53.500;10.176;2023-05-14T09:28:57;23.30;64.90
7030;DHT22;3556;53.500;10.176;2023-05-14T09:31:30;23.40;64.10
7030;DHT22;3556;53.500;10.176;2023-05-14T09:33:57;23.50;64.30
7030;DHT22;3556;53.500;10.176;2023-05-14T09:36:23;23.50;64.20
7030;DHT22;3556;53.500;10.176;2023-05-14T09:38:52;23.60;64.80
7030;DHT22;3556;53.500;10.176;2023-05-14T09:41:18;23.70;62.40
7030;DHT22;3556;53.500;10.176;2023-05-14T09:43:45;23.80;63.20
7030;DHT22;3556;53.500;10.176;2023-05-14T09:46:10;24.00;64.00
7030;DHT22;3556;53.500;10.176;2023-05-14T09:48:36;24.10;63.30
7030;DHT22;3556;53.500;10.176;2023-05-14T09:51:01;24.20;61.90
7030;DHT22;3556;53.500;10.176;2023-05-14T09:53:27;24.30;63.50
7030;DHT22;3556;53.500;10.176;2023-05-14T09:55:54;24.40;60.60
7030;DHT22;3556;53.500;10.176;2023-05-14T09:58:19;24.50;59.60
7030;DHT22;3556;53.500;10.176;2023-05-14T10:00:46;24.60;59.50
7030;DHT22;3556;53.500;10.176;2023-05-14T10:03:13;24.60;58.40
7030;DHT22;3556;53.500;10.176;2023-05-14T10:05:40;24.60;57.50
7030;DHT22;3556;53.500;10.176;2023-05-14T10:08:23;24.60;56.40
7030;DHT22;3556;53.500;10.176;2023-05-14T10:10:50;24.80;55.30
7030;DHT22;3556;53.500;10.176;2023-05-14T10:13:20;24.80;58.90
7030;DHT22;3556;53.500;10.176;2023-05-14T10:15:49;24.90;54.80
7030;DHT22;3556;53.500;10.176;2023-05-14T10:18:18;24.80;56.20
7030;DHT22;3556;53.500;10.176;2023-05-14T10:20:48;24.90;52.10
7030;DHT22;3556;53.500;10.176;2023-05-14T10:23:17;24.80;52.20
7030;DHT22;3556;53.500;10.176;2023-05-14T10:25:44;24.80;53.90
7030;DHT22;3556;53.500;10.176;2023-05-14T10:28:10;25.00;55.20
7030;DHT22;3556;53.500;10.176;2023-05-14T10:30:43;25.30;54.90
7030;DHT22;3556;53.500;10.176;2023-05-14T10:33:12;25.50;54.60
7030;DHT22;3556;53.500;10.176;2023-05-14T10:35:56;25.60;52.40
7030;DHT22;3556;53.500;10.176;2023-05-14T10:38:24;25.50;52.10
7030;DHT22;3556;53.500;10.176;2023-05-14T10:40:54;25.40;52.10
7030;DHT22;3556;53.500;10.176;2023-05-14T10:43:21;25.50;56.10
7030;DHT22;3556;53.500;10.176;2023-05-14T10:45:50;25.50;52.40
7030;DHT22;3556;53.500;10.176;2023-05-14T10:48:16;25.40;51.10
7030;DHT22;3556;53.500;10.176;2023-05-14T10:50:42;25.30;52.20
7030;DHT22;3556;53.500;10.176;2023-05-14T10:53:11;25.00;52.20
7030;DHT22;3556;53.500;10.176;2023-05-14T10:55:37;24.60;54.70
7030;DHT22;3556;53.500;10.176;2023-05-14T10:58:04;24.50;54.40
7030;DHT22;3556;53.500;10.176;2023-05-14T11:00:32;24.50;57.20
7030;DHT22;3556;53.500;10.176;2023-05-14T11:02:58;24.40;58.70
7030;DHT22;3556;53.500;10.176;2023-05-14T11:05:24;24.30;54.20
7030;DHT22;3556;53.500;10.176;2023-05-14T11:07:55;24.10;56.50
7030;DHT22;3556;53.500;10.176;2023-05-14T11:10:21;24.10;57.70
7030;DHT22;3556;53.500;10.176;2023-05-14T11:12:50;24.10;57.50
7030;DHT22;3556;53.500;10.176;2023-05-14T11:15:18;24.00;54.70
7030;DHT22;3556;53.500;10.176;2023-05-14T11:17:45;23.80;57.00
7030;DHT22;3556;53.500;10.176;2023-05-14T11:20:12;23.70;54.40
7030;DHT22;3556;53.500;10.176;2023-05-14T11:22:39;23.50;55.70
7030;DHT22;3556;53.500;10.176;2023-05-14T11:25:07;23.40;56.60
7030;DHT22;3556;53.500;10.176;2023-05-14T11:27:35;23.30;56.60
7030;DHT22;3556;53.500;10.176;2023-05-14T11:30:01;23.40;57.80
7030;DHT22;3556;53.500;10.176;2023-05-14T11:32:27;23.40;55.20
7030;DHT22;3556;53.500;10.176;2023-05-14T11:34:52;23.30;55.10
7030;DHT22;3556;53.500;10.176;2023-05-14T11:37:18;23.50;55.40
7030;DHT22;3556;53.500;10.176;2023-05-14T11:39:49;23.80;55.50
7030;DHT22;3556;53.500;10.176;2023-05-14T11:42:16;24.00;56.20
7030;DHT22;3556;53.500;10.176;2023-05-14T11:44:48;24.20;57.20
7030;DHT22;3556;53.500;10.176;2023-05-14T11:47:16;24.50;56.60
7030;DHT22;3556;53.500;10.176;2023-05-14T11:49:42;24.70;53.90
7030;DHT22;3556;53.500;10.176;2023-05-14T11:52:08;25.00;53.80
7030;DHT22;3556;53.500;10.176;2023-05-14T11:54:36;25.10;53.40
7030;DHT22;3556;53.500;10.176;2023-05-14T11:57:14;25.30;53.10
7030;DHT22;3556;53.500;10.176;2023-05-14T11:59:40;25.10;51.10
7030;DHT22;3556;53.500;10.176;2023-05-14T12:02:11;25.00;51.40
7030;DHT22;3556;53.500;10.176;2023-05-14T12:04:37;24.80;54.00
7030;DHT22;3556;53.500;10.176;2023-05-14T12:07:08;24.70;52.80
7030;DHT22;3556;53.500;10.176;2023-05-14T12:09:36;24.50;52.20
7030;DHT22;3556;53.500;10.176;2023-05-14T12:12:12;24.40;54.00
7030;DHT22;3556;53.500;10.176;2023-05-14T12:14:39;24.30;54.20
7030;DHT22;3556;53.500;10.176;2023-05-14T12:17:19;24.40;55.80
7030;DHT22;3556;53.500;10.176;2023-05-14T12:19:48;24.50;54.60
7030;DHT22;3556;53.500;10.176;2023-05-14T12:22:16;24.60;52.60
7030;DHT22;3556;53.500;10.176;2023-05-14T12:24:43;24.70;54.00
7030;DHT22;3556;53.500;10.176;2023-05-14T12:27:09;25.10;52.90
7030;DHT22;3556;53.500;10.176;2023-05-14T12:29:39;25.40;52.30
7030;DHT22;3556;53.500;10.176;2023-05-14T12:32:10;25.50;50.00
7030;DHT22;3556;53.500;10.176;2023-05-14T12:34:36;25.90;51.10
7030;DHT22;3556;53.500;10.176;2023-05-14T12:37:02;26.30;48.00
7030;DHT22;3556;53.500;10.176;2023-05-14T12:39:31;26.50;46.50
7030;DHT22;3556;53.500;10.176;2023-05-14T12:41:57;26.50;49.00
7030;DHT22;3556;53.500;10.176;2023-05-14T12:44:22;26.70;48.90
7030;DHT22;3556;53.500;10.176;2023-05-14T12:46:48;26.90;47.30
7030;DHT22;3556;53.500;10.176;2023-05-14T12:49:13;27.00;46.50
7030;DHT22;3556;53.500;10.176;2023-05-14T12:51:39;27.00;46.60
7030;DHT22;3556;53.500;10.176;2023-05-14T12:54:05;27.00;46.40
7030;DHT22;3556;53.500;10.176;2023-05-14T12:56:30;26.80;47.10
7030;DHT22;3556;53.500;10.176;2023-05-14T12:58:56;27.00;46.40
7030;DHT22;3556;53.500;10.176;2023-05-14T13:01:22;27.50;46.40
7030;DHT22;3556;53.500;10.176;2023-05-14T13:03:49;27.70;44.20
7030;DHT22;3556;53.500;10.176;2023-05-14T13:06:14;28.10;45.40
7030;DHT22;3556;53.500;10.176;2023-05-14T13:08:40;28.60;45.10
7030;DHT22;3556;53.500;10.176;2023-05-14T13:11:06;29.00;44.40
7030;DHT22;3556;53.500;10.176;2023-05-14T13:13:32;29.40;44.00
7030;DHT22;3556;53.500;10.176;2023-05-14T13:15:58;29.30;50.00
7030;DHT22;3556;53.500;10.176;2023-05-14T13:18:23;28.60;51.40
7030;DHT22;3556;53.500;10.176;2023-05-14T13:20:51;27.80;54.00
7030;DHT22;3556;53.500;10.176;2023-05-14T13:23:16;27.00;56.70
7030;DHT22;3556;53.500;10.176;2023-05-14T13:25:42;26.30;59.50
7030;DHT22;3556;53.500;10.176;2023-05-14T13:28:07;25.80;60.70
7030;DHT22;3556;53.500;10.176;2023-05-14T13:30:33;25.50;63.30
7030;DHT22;3556;53.500;10.176;2023-05-14T13:32:59;25.40;65.40
7030;DHT22;3556;53.500;10.176;2023-05-14T13:35:24;25.30;63.30
7030;DHT22;3556;53.500;10.176;2023-05-14T13:37:50;25.30;62.60
7030;DHT22;3556;53.500;10.176;2023-05-14T13:40:16;25.50;63.10
7030;DHT22;3556;53.500;10.176;2023-05-14T13:42:41;25.60;62.00
7030;DHT22;3556;53.500;10.176;2023-05-14T13:45:07;25.70;60.50
7030;DHT22;3556;53.500;10.176;2023-05-14T13:47:33;25.70;59.20
7030;DHT22;3556;53.500;10.176;2023-05-14T13:49:59;25.70;58.50
7030;DHT22;3556;53.500;10.176;2023-05-14T13:52:24;25.80;59.50
7030;DHT22;3556;53.500;10.176;2023-05-14T13:54:51;25.70;59.00
7030;DHT22;3556;53.500;10.176;2023-05-14T13:57:18;25.90;58.60
7030;DHT22;3556;53.500;10.176;2023-05-14T13:59:45;26.40;57.10
7030;DHT22;3556;53.500;10.176;2023-05-14T14:02:11;27.00;56.10
7030;DHT22;3556;53.500;10.176;2023-05-14T14:04:36;27.50;53.70
7030;DHT22;3556;53.500;10.176;2023-05-14T14:07:02;28.00;50.80
7030;DHT22;3556;53.500;10.176;2023-05-14T14:09:28;28.20;50.20
7030;DHT22;3556;53.500;10.176;2023-05-14T14:11:58;28.50;47.90
7030;DHT22;3556;53.500;10.176;2023-05-14T14:14:23;28.70;46.70
7030;DHT22;3556;53.500;10.176;2023-05-14T14:16:49;28.90;45.20
7030;DHT22;3556;53.500;10.176;2023-05-14T14:19:14;29.10;44.50
7030;DHT22;3556;53.500;10.176;2023-05-14T14:21:40;29.30;44.40
7030;DHT22;3556;53.500;10.176;2023-05-14T14:24:07;29.50;40.20
7030;DHT22;3556;53.500;10.176;2023-05-14T14:26:32;29.60;43.10
7030;DHT22;3556;53.500;10.176;2023-05-14T14:28:58;29.60;41.30
7030;DHT22;3556;53.500;10.176;2023-05-14T14:31:24;29.60;41.20
7030;DHT22;3556;53.500;10.176;2023-05-14T14:33:49;29.10;39.60
7030;DHT22;3556;53.500;10.176;2023-05-14T14:36:15;28.80;41.20
7030;DHT22;3556;53.500;10.176;2023-05-14T14:38:40;28.60;40.40
7030;DHT22;3556;53.500;10.176;2023-05-14T14:41:06;28.50;42.00
7030;DHT22;3556;53.500;10.176;2023-05-14T14:43:37;28.40;41.60
7030;DHT22;3556;53.500;10.176;2023-05-14T14:46:04;28.30;41.90
7030;DHT22;3556;53.500;10.176;2023-05-14T14:48:31;28.10;40.00
7030;DHT22;3556;53.500;10.176;2023-05-14T14:51:06;28.00;40.60
7030;DHT22;3556;53.500;10.176;2023-05-14T14:53:32;28.10;42.40
7030;DHT22;3556;53.500;10.176;2023-05-14T14:55:59;28.30;40.70
7030;DHT22;3556;53.500;10.176;2023-05-14T14:58:27;28.60;42.40
7030;DHT22;3556;53.500;10.176;2023-05-14T15:00:55;28.80;40.50
7030;DHT22;3556;53.500;10.176;2023-05-14T15:03:22;29.00;44.40
7030;DHT22;3556;53.500;10.176;2023-05-14T15:05:48;29.10;39.90
7030;DHT22;3556;53.500;10.176;2023-05-14T15:08:14;28.90;40.70
7030;DHT22;3556;53.500;10.176;2023-05-14T15:10:40;28.70;42.30
7030;DHT22;3556;53.500;10.176;2023-05-14T15:13:06;28.50;42.90
7030;DHT22;3556;53.500;10.176;2023-05-14T15:15:34;28.50;42.10
7030;DHT22;3556;53.500;10.176;2023-05-14T15:18:00;28.30;40.80
7030;DHT22;3556;53.500;10.176;2023-05-14T15:20:26;28.10;40.60
7030;DHT22;3556;53.500;10.176;2023-05-14T15:22:52;27.90;41.30
7030;DHT22;3556;53.500;10.176;2023-05-14T15:25:22;27.60;41.80
7030;DHT22;3556;53.500;10.176;2023-05-14T15:27:48;27.30;43.90
7030;DHT22;3556;53.500;10.176;2023-05-14T15:30:15;26.90;42.30
7030;DHT22;3556;53.500;10.176;2023-05-14T15:32:41;26.60;41.80
7030;DHT22;3556;53.500;10.176;2023-05-14T15:35:07;26.30;42.80
7030;DHT22;3556;53.500;10.176;2023-05-14T15:37:36;26.10;44.20
7030;DHT22;3556;53.500;10.176;2023-05-14T15:40:02;25.90;44.70
7030;DHT22;3556;53.500;10.176;2023-05-14T15:42:28;25.80;44.50
7030;DHT22;3556;53.500;10.176;2023-05-14T15:44:54;25.80;44.20